sensor_id;sensor_type;location;lat;lon;timestamp;P1;durP1;ratioP1;P2;durP2;ratioP2
29906;SDS011;16776;50.958;10.994;2023-05-19T00:01:50;1.10;;;1.00;;
29906;SDS011;16776;50.958;10.994;2023-05-19T00:04:17;2.97;;;1.20;;
29906;SDS011;16776;50.958;10.994;2023-05-19T00:06:47;2.80;;;1.30;;
29906;SDS011;16776;50.958;10.994;2023-05-19T00:09:16;4.25;;;1.10;;
29906;SDS011;16776;50.958;10.994;2023-05-19T00:11:43;2.03;;;0.98;;
29906;SDS011;16776;50.958;10.994;2023-05-19T00:14:10;2.10;;;1.00;;
29906;SDS011;16776;50.958;10.994;2023-05-19T00:16:38;1.70;;;0.77;;
29906;SDS011;16776;50.958;10.994;2023-05-19T00:19:06;2.17;;;1.00;;
29906;SDS011;16776;50.958;10.994;2023-05-19T00:21:34;1.90;;;1.05;;
29906;SDS011;16776;50.958;10.994;2023-05-19T00:24:06;1.20;;;0.98;;
29906;SDS011;16776;50.958;10.994;2023-05-19T00:26:32;1.10;;;0.75;;
29906;SDS011;16776;50.958;10.994;2023-05-19T00:28:59;1.13;;;0.98;;
29906;SDS011;16776;50.958;10.994;2023-05-19T00:31:25;3.45;;;1.20;;
29906;SDS011;16776;50.958;10.994;2023-05-19T00:33:54;1.05;;;0.90;;
29906;SDS011;16776;50.958;10.994;2023-05-19T00:36:21;1.23;;;0.80;;
29906;SDS011;16776;50.958;10.994;2023-05-19T00:38:47;2.20;;;0.90;;
29906;SDS011;16776;50.958;10.994;2023-05-19T00:41:16;2.83;;;0.90;;
29906;SDS011;16776;50.958;10.994;2023-05-19T00:43:43;0.77;;;0.77;;
29906;SDS011;16776;50.958;10.994;2023-05-19T00:46:13;1.35;;;0.77;;
29906;SDS011;16776;50.958;10.994;2023-05-19T00:48:42;2.17;;;1.10;;
29906;SDS011;16776;50.958;10.994;2023-05-19T00:51:09;3.53;;;0.90;;
29906;SDS011;16776;50.958;10.994;2023-05-19T00:53:40;2.33;;;1.20;;
29906;SDS011;16776;50.958;10.994;2023-05-19T00:56:12;1.33;;;1.08;;
29906;SDS011;16776;50.958;10.994;2023-05-19T00:58:41;1.23;;;0.98;;
29906;SDS011;16776;50.958;10.994;2023-05-19T01:01:07;1.40;;;0.75;;
29906;SDS011;16776;50.958;10.994;2023-05-19T01:03:38;1.10;;;0.80;;
29906;SDS011;16776;50.958;10.994;2023-05-19T01:06:06;1.50;;;1.02;;
29906;SDS011;16776;50.958;10.994;2023-05-19T01:08:33;3.53;;;1.45;;
29906;SDS011;16776;50.958;10.994;2023-05-19T01:11:01;1.45;;;0.98;;
29906;SDS011;16776;50.958;10.994;2023-05-19T01:13:28;0.90;;;0.90;;
29906;SDS011;16776;50.958;10.994;2023-05-19T01:15:59;1.20;;;0.95;;
29906;SDS011;16776;50.958;10.994;2023-05-19T01:18:32;1.13;;;1.00;;
29906;SDS011;16776;50.958;10.994;2023-05-19T01:21:21;1.52;;;1.17;;
29906;SDS011;16776;50.958;10.994;2023-05-19T01:24:12;1.90;;;0.95;;
29906;SDS011;16776;50.958;10.994;2023-05-19T01:27:03;2.13;;;1.05;;
29906;SDS011;16776;50.958;10.994;2023-05-19T01:32:47;1.65;;;0.98;;
29906;SDS011;16776;50.958;10.994;2023-05-19T01:35:16;2.15;;;0.90;;
29906;SDS011;16776;50.958;10.994;2023-05-19T01:37:44;1.85;;;1.13;;
29906;SDS011;16776;50.958;10.994;2023-05-19T01:40:12;1.90;;;1.10;;
29906;SDS011;16776;50.958;10.994;2023-05-19T01:42:39;2.05;;;0.98;;
29906;SDS011;16776;50.958;10.994;2023-05-19T01:45:09;1.58;;;1.10;;
29906;SDS011;16776;50.958;10.994;2023-05-19T01:47:41;1.85;;;1.00;;
29906;SDS011;16776;50.958;10.994;2023-05-19T01:50:11;1.00;;;1.00;;
29906;SDS011;16776;50.958;10.994;2023-05-19T01:52:37;1.50;;;1.38;;
29906;SDS011;16776;50.958;10.994;2023-05-19T01:55:07;2.35;;;0.98;;
29906;SDS011;16776;50.958;10.994;2023-05-19T01:57:36;2.08;;;1.15;;
29906;SDS011;16776;50.958;10.994;2023-05-19T02:00:10;0.98;;;0.90;;
29906;SDS011;16776;50.958;10.994;2023-05-19T02:02:42;2.17;;;0.90;;
29906;SDS011;16776;50.958;10.994;2023-05-19T02:05:23;2.15;;;0.80;;
29906;SDS011;16776;50.958;10.994;2023-05-19T02:07:57;1.90;;;1.00;;
29906;SDS011;16776;50.958;10.994;2023-05-19T02:10:31;2.78;;;1.30;;
29906;SDS011;16776;50.958;10.994;2023-05-19T02:13:03;3.42;;;1.23;;
29906;SDS011;16776;50.958;10.994;2023-05-19T02:15:33;1.88;;;1.50;;
29906;SDS011;16776;50.958;10.994;2023-05-19T02:18:06;1.83;;;1.40;;
29906;SDS011;16776;50.958;10.994;2023-05-19T02:20:39;2.07;;;1.70;;
29906;SDS011;16776;50.958;10.994;2023-05-19T02:23:06;1.75;;;1.33;;
29906;SDS011;16776;50.958;10.994;2023-05-19T02:25:33;2.70;;;1.85;;
29906;SDS011;16776;50.958;10.994;2023-05-19T02:27:59;2.22;;;1.67;;
29906;SDS011;16776;50.958;10.994;2023-05-19T02:30:26;4.90;;;1.77;;
29906;SDS011;16776;50.958;10.994;2023-05-19T02:32:52;1.70;;;1.40;;
29906;SDS011;16776;50.958;10.994;2023-05-19T02:35:22;1.85;;;1.55;;
29906;SDS011;16776;50.958;10.994;2023-05-19T02:37:50;2.30;;;1.48;;
29906;SDS011;16776;50.958;10.994;2023-05-19T02:40:16;1.92;;;1.30;;
29906;SDS011;16776;50.958;10.994;2023-05-19T02:42:43;2.67;;;1.27;;
29906;SDS011;16776;50.958;10.994;2023-05-19T02:45:10;2.53;;;1.23;;
29906;SDS011;16776;50.958;10.994;2023-05-19T02:47:37;1.38;;;1.20;;
29906;SDS011;16776;50.958;10.994;2023-05-19T02:50:03;1.73;;;1.30;;
29906;SDS011;16776;50.958;10.994;2023-05-19T02:52:31;1.38;;;1.08;;
29906;SDS011;16776;50.958;10.994;2023-05-19T02:54:59;1.92;;;1.15;;
29906;SDS011;16776;50.958;10.994;2023-05-19T02:57:25;1.58;;;1.10;;
29906;SDS011;16776;50.958;10.994;2023-05-19T02:59:52;1.48;;;1.20;;
29906;SDS011;16776;50.958;10.994;2023-05-19T03:02:18;1.13;;;0.98;;
29906;SDS011;16776;50.958;10.994;2023-05-19T03:04:47;1.45;;;1.10;;
29906;SDS011;16776;50.958;10.994;2023-05-19T03:07:16;1.85;;;1.33;;
29906;SDS011;16776;50.958;10.994;2023-05-19T03:09:42;1.30;;;1.08;;
29906;SDS011;16776;50.958;10.994;2023-05-19T03:12:12;2.17;;;1.35;;
29906;SDS011;16776;50.958;10.994;2023-05-19T03:14:38;1.70;;;1.33;;
29906;SDS011;16776;50.958;10.994;2023-05-19T03:17:05;1.55;;;1.27;;
29906;SDS011;16776;50.958;10.994;2023-05-19T03:19:34;4.35;;;1.85;;
29906;SDS011;16776;50.958;10.994;2023-05-19T03:22:00;1.58;;;1.40;;
29906;SDS011;16776;50.958;10.994;2023-05-19T03:24:27;2.75;;;1.40;;
29906;SDS011;16776;50.958;10.994;2023-05-19T03:26:54;1.42;;;1.33;;
29906;SDS011;16776;50.958;10.994;2023-05-19T03:29:22;1.88;;;1.30;;
29906;SDS011;16776;50.958;10.994;2023-05-19T03:31:48;3.40;;;1.40;;
29906;SDS011;16776;50.958;10.994;2023-05-19T03:34:16;2.50;;;1.70;;
29906;SDS011;16776;50.958;10.994;2023-05-19T03:36:42;1.92;;;1.15;;
29906;SDS011;16776;50.958;10.994;2023-05-19T03:39:09;1.88;;;1.45;;
29906;SDS011;16776;50.958;10.994;2023-05-19T03:41:36;2.30;;;1.25;;
29906;SDS011;16776;50.958;10.994;2023-05-19T03:44:02;1.15;;;1.10;;
29906;SDS011;16776;50.958;10.994;2023-05-19T03:46:30;1.25;;;1.15;;
29906;SDS011;16776;50.958;10.994;2023-05-19T03:48:57;1.48;;;0.90;;
29906;SDS011;16776;50.958;10.994;2023-05-19T03:51:23;4.68;;;1.17;;
29906;SDS011;16776;50.958;10.994;2023-05-19T03:53:52;1.10;;;0.98;;
29906;SDS011;16776;50.958;10.994;2023-05-19T03:56:19;2.63;;;1.25;;
29906;SDS011;16776;50.958;10.994;2023-05-19T03:58:47;2.63;;;0.93;;
29906;SDS011;16776;50.958;10.994;2023-05-19T04:01:14;1.02;;;0.88;;
29906;SDS011;16776;50.958;10.994;2023-05-19T04:03:42;1.63;;;1.25;;
29906;SDS011;16776;50.958;10.994;2023-05-19T04:06:11;1.75;;;1.20;;
29906;SDS011;16776;50.958;10.994;2023-05-19T04:08:38;1.40;;;1.00;;
29906;SDS011;16776;50.958;10.994;2023-05-19T04:11:04;0.95;;;0.90;;
29906;SDS011;16776;50.958;10.994;2023-05-19T04:13:32;1.58;;;1.20;;
29906;SDS011;16776;50.958;10.994;2023-05-19T04:15:59;1.98;;;1.38;;
29906;SDS011;16776;50.958;10.994;2023-05-19T04:18:25;1.90;;;1.63;;
29906;SDS011;16776;50.958;10.994;2023-05-19T04:20:53;2.15;;;1.83;;
29906;SDS011;16776;50.958;10.994;2023-05-19T04:23:20;2.13;;;1.50;;
29906;SDS011;16776;50.958;10.994;2023-05-19T04:25:47;2.42;;;1.50;;
29906;SDS011;16776;50.958;10.994;2023-05-19T04:28:14;1.50;;;1.20;;
29906;SDS011;16776;50.958;10.994;2023-05-19T04:30:41;2.75;;;1.63;;
29906;SDS011;16776;50.958;10.994;2023-05-19T04:33:10;1.95;;;1.30;;
29906;SDS011;16776;50.958;10.994;2023-05-19T04:35:37;1.80;;;1.40;;
29906;SDS011;16776;50.958;10.994;2023-05-19T04:38:06;1.88;;;1.20;;
29906;SDS011;16776;50.958;10.994;2023-05-19T04:40:34;1.67;;;1.55;;
29906;SDS011;16776;50.958;10.994;2023-05-19T04:43:01;1.80;;;1.30;;
29906;SDS011;16776;50.958;10.994;2023-05-19T04:45:27;2.22;;;1.42;;
29906;SDS011;16776;50.958;10.994;2023-05-19T04:47:54;1.92;;;1.58;;
29906;SDS011;16776;50.958;10.994;2023-05-19T04:50:25;2.28;;;1.40;;
29906;SDS011;16776;50.958;10.994;2023-05-19T04:52:53;1.20;;;1.10;;
29906;SDS011;16776;50.958;10.994;2023-05-19T04:55:21;1.05;;;0.90;;
29906;SDS011;16776;50.958;10.994;2023-05-19T04:57:48;1.05;;;0.98;;
29906;SDS011;16776;50.958;10.994;2023-05-19T05:00:14;1.63;;;1.35;;
29906;SDS011;16776;50.958;10.994;2023-05-19T05:02:42;1.60;;;1.50;;
29906;SDS011;16776;50.958;10.994;2023-05-19T05:05:09;2.00;;;1.23;;
29906;SDS011;16776;50.958;10.994;2023-05-19T05:07:39;1.50;;;1.02;;
29906;SDS011;16776;50.958;10.994;2023-05-19T05:10:12;0.93;;;0.93;;
29906;SDS011;16776;50.958;10.994;2023-05-19T05:12:43;1.52;;;0.95;;
29906;SDS011;16776;50.958;10.994;2023-05-19T05:15:10;1.48;;;1.00;;
29906;SDS011;16776;50.958;10.994;2023-05-19T05:17:38;1.23;;;1.08;;
29906;SDS011;16776;50.958;10.994;2023-05-19T05:20:05;2.75;;;1.48;;
29906;SDS011;16776;50.958;10.994;2023-05-19T05:22:33;1.50;;;1.00;;
29906;SDS011;16776;50.958;10.994;2023-05-19T05:25:03;2.72;;;1.20;;
29906;SDS011;16776;50.958;10.994;2023-05-19T05:27:30;1.63;;;1.20;;
29906;SDS011;16776;50.958;10.994;2023-05-19T05:29:59;3.05;;;1.10;;
29906;SDS011;16776;50.958;10.994;2023-05-19T05:32:25;1.08;;;0.98;;
29906;SDS011;16776;50.958;10.994;2023-05-19T05:34:52;1.23;;;1.13;;
29906;SDS011;16776;50.958;10.994;2023-05-19T05:37:18;1.60;;;0.95;;
29906;SDS011;16776;50.958;10.994;2023-05-19T05:39:45;3.42;;;1.13;;
29906;SDS011;16776;50.958;10.994;2023-05-19T05:42:12;1.40;;;1.00;;
29906;SDS011;16776;50.958;10.994;2023-05-19T05:44:38;1.30;;;0.93;;
29906;SDS011;16776;50.958;10.994;2023-05-19T05:47:10;1.75;;;0.82;;
29906;SDS011;16776;50.958;10.994;2023-05-19T05:49:39;1.20;;;1.10;;
29906;SDS011;16776;50.958;10.994;2023-05-19T05:52:09;2.47;;;1.00;;
29906;SDS011;16776;50.958;10.994;2023-05-19T05:54:37;1.33;;;1.10;;
29906;SDS011;16776;50.958;10.994;2023-05-19T05:57:04;3.42;;;1.00;;
29906;SDS011;16776;50.958;10.994;2023-05-19T05:59:31;1.33;;;0.98;;
29906;SDS011;16776;50.958;10.994;2023-05-19T06:01:59;2.35;;;1.40;;
29906;SDS011;16776;50.958;10.994;2023-05-19T06:04:27;2.17;;;1.02;;
29906;SDS011;16776;50.958;10.994;2023-05-19T06:06:53;0.82;;;0.82;;
29906;SDS011;16776;50.958;10.994;2023-05-19T06:09:24;0.90;;;0.90;;
29906;SDS011;16776;50.958;10.994;2023-05-19T06:11:51;2.22;;;1.05;;
29906;SDS011;16776;50.958;10.994;2023-05-19T06:14:18;0.95;;;0.93;;
29906;SDS011;16776;50.958;10.994;2023-05-19T06:16:46;1.83;;;1.08;;
29906;SDS011;16776;50.958;10.994;2023-05-19T06:19:13;0.98;;;0.90;;
29906;SDS011;16776;50.958;10.994;2023-05-19T06:21:41;1.52;;;1.15;;
29906;SDS011;16776;50.958;10.994;2023-05-19T06:24:08;1.30;;;0.80;;
29906;SDS011;16776;50.958;10.994;2023-05-19T06:26:37;1.85;;;0.82;;
29906;SDS011;16776;50.958;10.994;2023-05-19T06:29:03;2.15;;;1.20;;
29906;SDS011;16776;50.958;10.994;2023-05-19T06:31:32;2.75;;;0.98;;
29906;SDS011;16776;50.958;10.994;2023-05-19T06:34:04;3.03;;;1.15;;
29906;SDS011;16776;50.958;10.994;2023-05-19T06:36:36;1.23;;;0.95;;
29906;SDS011;16776;50.958;10.994;2023-05-19T06:39:05;2.00;;;0.73;;
29906;SDS011;16776;50.958;10.994;2023-05-19T06:41:32;1.85;;;0.90;;
29906;SDS011;16776;50.958;10.994;2023-05-19T06:43:59;0.98;;;0.90;;
29906;SDS011;16776;50.958;10.994;2023-05-19T06:46:25;1.58;;;0.82;;
29906;SDS011;16776;50.958;10.994;2023-05-19T06:48:52;1.52;;;0.80;;
29906;SDS011;16776;50.958;10.994;2023-05-19T06:51:18;1.48;;;0.68;;
29906;SDS011;16776;50.958;10.994;2023-05-19T06:53:46;1.27;;;0.77;;
29906;SDS011;16776;50.958;10.994;2023-05-19T06:56:15;3.10;;;1.10;;
29906;SDS011;16776;50.958;10.994;2023-05-19T06:58:43;3.00;;;1.10;;
29906;SDS011;16776;50.958;10.994;2023-05-19T07:01:09;1.73;;;1.17;;
29906;SDS011;16776;50.958;10.994;2023-05-19T07:03:36;1.10;;;0.98;;
29906;SDS011;16776;50.958;10.994;2023-05-19T07:06:03;1.67;;;0.90;;
29906;SDS011;16776;50.958;10.994;2023-05-19T07:08:29;1.80;;;1.10;;
29906;SDS011;16776;50.958;10.994;2023-05-19T07:10:56;1.23;;;1.00;;
29906;SDS011;16776;50.958;10.994;2023-05-19T07:13:26;2.20;;;0.90;;
29906;SDS011;16776;50.958;10.994;2023-05-19T07:15:54;1.00;;;0.90;;
29906;SDS011;16776;50.958;10.994;2023-05-19T07:18:20;3.20;;;1.05;;
29906;SDS011;16776;50.958;10.994;2023-05-19T07:20:50;2.58;;;0.80;;
29906;SDS011;16776;50.958;10.994;2023-05-19T07:23:17;2.50;;;1.15;;
29906;SDS011;16776;50.958;10.994;2023-05-19T07:25:45;2.15;;;1.10;;
29906;SDS011;16776;50.958;10.994;2023-05-19T07:28:12;1.65;;;0.95;;
29906;SDS011;16776;50.958;10.994;2023-05-19T07:30:40;4.50;;;0.90;;
29906;SDS011;16776;50.958;10.994;2023-05-19T07:33:06;1.02;;;0.77;;
29906;SDS011;16776;50.958;10.994;2023-05-19T07:35:33;1.73;;;1.10;;
29906;SDS011;16776;50.958;10.994;2023-05-19T07:38:01;2.53;;;1.30;;
29906;SDS011;16776;50.958;10.994;2023-05-19T07:40:31;0.95;;;0.90;;
29906;SDS011;16776;50.958;10.994;2023-05-19T07:42:58;1.95;;;1.05;;
29906;SDS011;16776;50.958;10.994;2023-05-19T07:45:24;2.55;;;1.15;;
29906;SDS011;16776;50.958;10.994;2023-05-19T07:47:53;1.23;;;0.90;;
29906;SDS011;16776;50.958;10.994;2023-05-19T07:50:20;2.20;;;1.08;;
29906;SDS011;16776;50.958;10.994;2023-05-19T07:52:46;1.73;;;1.08;;
29906;SDS011;16776;50.958;10.994;2023-05-19T07:55:13;1.00;;;0.95;;
29906;SDS011;16776;50.958;10.994;2023-05-19T07:57:39;1.17;;;0.80;;
29906;SDS011;16776;50.958;10.994;2023-05-19T08:00:09;0.70;;;0.70;;
29906;SDS011;16776;50.958;10.994;2023-05-19T08:02:37;2.10;;;1.02;;
29906;SDS011;16776;50.958;10.994;2023-05-19T08:05:06;1.80;;;1.10;;
29906;SDS011;16776;50.958;10.994;2023-05-19T08:07:35;1.35;;;1.25;;
29906;SDS011;16776;50.958;10.994;2023-05-19T08:10:04;1.63;;;0.98;;
29906;SDS011;16776;50.958;10.994;2023-05-19T08:12:31;1.02;;;0.85;;
29906;SDS011;16776;50.958;10.994;2023-05-19T08:14:57;1.50;;;0.85;;
29906;SDS011;16776;50.958;10.994;2023-05-19T08:17:24;1.83;;;1.00;;
29906;SDS011;16776;50.958;10.994;2023-05-19T08:19:50;0.90;;;0.85;;
29906;SDS011;16776;50.958;10.994;2023-05-19T08:22:18;2.05;;;1.23;;
29906;SDS011;16776;50.958;10.994;2023-05-19T08:24:47;1.38;;;0.75;;
29906;SDS011;16776;50.958;10.994;2023-05-19T08:27:15;2.38;;;0.82;;
29906;SDS011;16776;50.958;10.994;2023-05-19T08:29:42;1.23;;;0.90;;
29906;SDS011;16776;50.958;10.994;2023-05-19T08:32:08;1.35;;;0.82;;
29906;SDS011;16776;50.958;10.994;2023-05-19T08:34:38;1.35;;;1.10;;
29906;SDS011;16776;50.958;10.994;2023-05-19T08:37:05;1.55;;;1.00;;
29906;SDS011;16776;50.958;10.994;2023-05-19T08:39:38;1.08;;;1.00;;
29906;SDS011;16776;50.958;10.994;2023-05-19T08:42:05;0.80;;;0.80;;
29906;SDS011;16776;50.958;10.994;2023-05-19T08:44:33;1.55;;;0.80;;
29906;SDS011;16776;50.958;10.994;2023-05-19T08:47:02;1.27;;;1.15;;
29906;SDS011;16776;50.958;10.994;2023-05-19T08:49:31;1.85;;;1.10;;
29906;SDS011;16776;50.958;10.994;2023-05-19T08:51:59;1.00;;;0.80;;
29906;SDS011;16776;50.958;10.994;2023-05-19T08:54:32;1.08;;;1.02;;
29906;SDS011;16776;50.958;10.994;2023-05-19T08:57:07;2.83;;;1.15;;
29906;SDS011;16776;50.958;10.994;2023-05-19T08:59:34;3.40;;;0.93;;
29906;SDS011;16776;50.958;10.994;2023-05-19T09:02:04;2.05;;;0.80;;
29906;SDS011;16776;50.958;10.994;2023-05-19T09:04:34;1.20;;;1.10;;
29906;SDS011;16776;50.958;10.994;2023-05-19T09:07:10;0.80;;;0.80;;
29906;SDS011;16776;50.958;10.994;2023-05-19T09:09:39;1.40;;;1.30;;
29906;SDS011;16776;50.958;10.994;2023-05-19T09:12:07;1.63;;;0.90;;
29906;SDS011;16776;50.958;10.994;2023-05-19T09:14:34;1.85;;;0.90;;
29906;SDS011;16776;50.958;10.994;2023-05-19T09:17:02;2.38;;;1.50;;
29906;SDS011;16776;50.958;10.994;2023-05-19T09:19:29;2.33;;;1.05;;
29906;SDS011;16776;50.958;10.994;2023-05-19T09:21:59;0.75;;;0.75;;
29906;SDS011;16776;50.958;10.994;2023-05-19T09:24:27;0.70;;;0.63;;
29906;SDS011;16776;50.958;10.994;2023-05-19T09:26:56;1.35;;;0.85;;
29906;SDS011;16776;50.958;10.994;2023-05-19T09:29:22;1.08;;;0.63;;
29906;SDS011;16776;50.958;10.994;2023-05-19T09:31:50;1.05;;;0.70;;
29906;SDS011;16776;50.958;10.994;2023-05-19T09:34:18;2.85;;;0.70;;
29906;SDS011;16776;50.958;10.994;2023-05-19T09:36:45;0.60;;;0.60;;
29906;SDS011;16776;50.958;10.994;2023-05-19T09:39:15;0.80;;;0.80;;
29906;SDS011;16776;50.958;10.994;2023-05-19T09:41:42;1.38;;;0.80;;
29906;SDS011;16776;50.958;10.994;2023-05-19T09:44:14;1.88;;;0.95;;
29906;SDS011;16776;50.958;10.994;2023-05-19T09:46:47;2.67;;;1.10;;
29906;SDS011;16776;50.958;10.994;2023-05-19T09:49:18;1.52;;;0.70;;
29906;SDS011;16776;50.958;10.994;2023-05-19T09:51:47;0.50;;;0.50;;
29906;SDS011;16776;50.958;10.994;2023-05-19T09:54:19;1.20;;;0.88;;
29906;SDS011;16776;50.958;10.994;2023-05-19T09:56:51;0.63;;;0.63;;
29906;SDS011;16776;50.958;10.994;2023-05-19T09:59:26;1.60;;;0.63;;
29906;SDS011;16776;50.958;10.994;2023-05-19T10:01:55;0.80;;;0.80;;
29906;SDS011;16776;50.958;10.994;2023-05-19T10:04:22;1.25;;;1.05;;
29906;SDS011;16776;50.958;10.994;2023-05-19T10:06:50;1.05;;;0.95;;
29906;SDS011;16776;50.958;10.994;2023-05-19T10:09:19;0.80;;;0.80;;
29906;SDS011;16776;50.958;10.994;2023-05-19T10:11:49;1.30;;;0.60;;
29906;SDS011;16776;50.958;10.994;2023-05-19T10:14:17;1.63;;;1.00;;
29906;SDS011;16776;50.958;10.994;2023-05-19T10:16:46;1.05;;;0.75;;
29906;SDS011;16776;50.958;10.994;2023-05-19T10:19:16;0.95;;;0.90;;
29906;SDS011;16776;50.958;10.994;2023-05-19T10:21:45;1.52;;;0.90;;
29906;SDS011;16776;50.958;10.994;2023-05-19T10:24:12;0.77;;;0.77;;
29906;SDS011;16776;50.958;10.994;2023-05-19T10:26:38;0.70;;;0.70;;
29906;SDS011;16776;50.958;10.994;2023-05-19T10:29:09;1.65;;;0.90;;
29906;SDS011;16776;50.958;10.994;2023-05-19T10:31:36;1.25;;;0.85;;
29906;SDS011;16776;50.958;10.994;2023-05-19T10:34:12;0.70;;;0.70;;
29906;SDS011;16776;50.958;10.994;2023-05-19T10:36:49;0.60;;;0.60;;
29906;SDS011;16776;50.958;10.994;2023-05-19T10:39:24;1.23;;;0.82;;
29906;SDS011;16776;50.958;10.994;2023-05-19T10:41:57;0.55;;;0.55;;
29906;SDS011;16776;50.958;10.994;2023-05-19T10:44:32;2.08;;;1.00;;
29906;SDS011;16776;50.958;10.994;2023-05-19T10:47:05;2.15;;;1.00;;
29906;SDS011;16776;50.958;10.994;2023-05-19T10:49:41;1.17;;;0.80;;
29906;SDS011;16776;50.958;10.994;2023-05-19T10:52:17;0.77;;;0.77;;
29906;SDS011;16776;50.958;10.994;2023-05-19T10:54:46;1.35;;;0.80;;
29906;SDS011;16776;50.958;10.994;2023-05-19T10:57:18;1.88;;;0.82;;
29906;SDS011;16776;50.958;10.994;2023-05-19T10:59:46;0.85;;;0.85;;
29906;SDS011;16776;50.958;10.994;2023-05-19T11:05:11;0.68;;;0.68;;
29906;SDS011;16776;50.958;10.994;2023-05-19T11:07:40;2.08;;;0.70;;
29906;SDS011;16776;50.958;10.994;2023-05-19T11:10:08;1.45;;;0.80;;
29906;SDS011;16776;50.958;10.994;2023-05-19T11:12:39;0.63;;;0.60;;
29906;SDS011;16776;50.958;10.994;2023-05-19T11:15:09;1.00;;;0.90;;
29906;SDS011;16776;50.958;10.994;2023-05-19T11:17:38;0.65;;;0.65;;
29906;SDS011;16776;50.958;10.994;2023-05-19T11:20:06;1.02;;;0.68;;
29906;SDS011;16776;50.958;10.994;2023-05-19T11:22:59;0.90;;;0.57;;
29906;SDS011;16776;50.958;10.994;2023-05-19T11:25:39;2.05;;;0.60;;
29906;SDS011;16776;50.958;10.994;2023-05-19T11:28:07;1.80;;;0.60;;
29906;SDS011;16776;50.958;10.994;2023-05-19T11:30:38;0.90;;;0.80;;
29906;SDS011;16776;50.958;10.994;2023-05-19T11:33:09;0.60;;;0.60;;
29906;SDS011;16776;50.958;10.994;2023-05-19T11:35:38;0.80;;;0.80;;
29906;SDS011;16776;50.958;10.994;2023-05-19T11:38:05;0.70;;;0.60;;
29906;SDS011;16776;50.958;10.994;2023-05-19T11:40:32;0.60;;;0.60;;
29906;SDS011;16776;50.958;10.994;2023-05-19T11:42:59;0.70;;;0.40;;
29906;SDS011;16776;50.958;10.994;2023-05-19T11:45:27;2.55;;;0.88;;
29906;SDS011;16776;50.958;10.994;2023-05-19T11:48:00;0.45;;;0.43;;
29906;SDS011;16776;50.958;10.994;2023-05-19T11:50:27;0.60;;;0.60;;
29906;SDS011;16776;50.958;10.994;2023-05-19T11:52:55;0.98;;;0.60;;
29906;SDS011;16776;50.958;10.994;2023-05-19T11:55:22;0.40;;;0.40;;
29906;SDS011;16776;50.958;10.994;2023-05-19T11:57:59;0.50;;;0.50;;
29906;SDS011;16776;50.958;10.994;2023-05-19T12:00:26;2.00;;;0.73;;
29906;SDS011;16776;50.958;10.994;2023-05-19T12:02:54;0.70;;;0.68;;
29906;SDS011;16776;50.958;10.994;2023-05-19T12:05:24;0.60;;;0.60;;
29906;SDS011;16776;50.958;10.994;2023-05-19T12:07:52;0.50;;;0.50;;
29906;SDS011;16776;50.958;10.994;2023-05-19T12:10:21;0.65;;;0.50;;
29906;SDS011;16776;50.958;10.994;2023-05-19T12:12:48;1.15;;;0.68;;
29906;SDS011;16776;50.958;10.994;2023-05-19T12:15:17;0.55;;;0.50;;
29906;SDS011;16776;50.958;10.994;2023-05-19T12:17:44;0.77;;;0.60;;
29906;SDS011;16776;50.958;10.994;2023-05-19T12:20:12;1.33;;;0.60;;
29906;SDS011;16776;50.958;10.994;2023-05-19T12:22:39;1.00;;;0.98;;
29906;SDS011;16776;50.958;10.994;2023-05-19T12:25:06;2.47;;;0.63;;
29906;SDS011;16776;50.958;10.994;2023-05-19T12:27:35;1.70;;;0.80;;
29906;SDS011;16776;50.958;10.994;2023-05-19T12:30:02;1.23;;;1.13;;
29906;SDS011;16776;50.958;10.994;2023-05-19T12:32:31;1.10;;;0.80;;
29906;SDS011;16776;50.958;10.994;2023-05-19T12:34:59;1.25;;;0.95;;
29906;SDS011;16776;50.958;10.994;2023-05-19T12:37:28;1.25;;;1.00;;
29906;SDS011;16776;50.958;10.994;2023-05-19T12:39:55;2.03;;;0.63;;
29906;SDS011;16776;50.958;10.994;2023-05-19T12:42:22;1.23;;;0.68;;
29906;SDS011;16776;50.958;10.994;2023-05-19T12:44:50;1.02;;;0.93;;
29906;SDS011;16776;50.958;10.994;2023-05-19T12:47:17;3.05;;;0.80;;
29906;SDS011;16776;50.958;10.994;2023-05-19T12:49:52;1.85;;;0.85;;
29906;SDS011;16776;50.958;10.994;2023-05-19T12:52:20;0.98;;;0.80;;
29906;SDS011;16776;50.958;10.994;2023-05-19T12:54:47;0.60;;;0.60;;
29906;SDS011;16776;50.958;10.994;2023-05-19T12:57:15;2.38;;;0.77;;
29906;SDS011;16776;50.958;10.994;2023-05-19T12:59:41;0.63;;;0.60;;
29906;SDS011;16776;50.958;10.994;2023-05-19T13:02:09;1.05;;;0.63;;
29906;SDS011;16776;50.958;10.994;2023-05-19T13:04:36;1.05;;;0.70;;
29906;SDS011;16776;50.958;10.994;2023-05-19T13:07:03;1.25;;;0.77;;
29906;SDS011;16776;50.958;10.994;2023-05-19T13:09:30;1.00;;;0.88;;
29906;SDS011;16776;50.958;10.994;2023-05-19T13:11:59;0.73;;;0.60;;
29906;SDS011;16776;50.958;10.994;2023-05-19T13:14:25;1.45;;;0.60;;
29906;SDS011;16776;50.958;10.994;2023-05-19T13:16:52;2.13;;;0.70;;
29906;SDS011;16776;50.958;10.994;2023-05-19T13:19:22;0.80;;;0.80;;
29906;SDS011;16776;50.958;10.994;2023-05-19T13:21:52;1.35;;;0.75;;
29906;SDS011;16776;50.958;10.994;2023-05-19T13:24:18;0.60;;;0.55;;
29906;SDS011;16776;50.958;10.994;2023-05-19T13:26:47;0.50;;;0.47;;
29906;SDS011;16776;50.958;10.994;2023-05-19T13:29:13;0.80;;;0.65;;
29906;SDS011;16776;50.958;10.994;2023-05-19T13:31:40;0.77;;;0.70;;
29906;SDS011;16776;50.958;10.994;2023-05-19T13:34:07;0.60;;;0.60;;
29906;SDS011;16776;50.958;10.994;2023-05-19T13:36:35;1.23;;;0.55;;
29906;SDS011;16776;50.958;10.994;2023-05-19T13:39:04;0.70;;;0.60;;
29906;SDS011;16776;50.958;10.994;2023-05-19T13:41:31;0.60;;;0.60;;
29906;SDS011;16776;50.958;10.994;2023-05-19T13:44:00;1.52;;;0.73;;
29906;SDS011;16776;50.958;10.994;2023-05-19T13:46:26;1.98;;;0.93;;
29906;SDS011;16776;50.958;10.994;2023-05-19T13:48:56;0.70;;;0.70;;
29906;SDS011;16776;50.958;10.994;2023-05-19T13:51:22;0.60;;;0.43;;
29906;SDS011;16776;50.958;10.994;2023-05-19T13:53:50;0.57;;;0.57;;
29906;SDS011;16776;50.958;10.994;2023-05-19T13:56:17;0.70;;;0.70;;
29906;SDS011;16776;50.958;10.994;2023-05-19T13:58:43;0.73;;;0.55;;
29906;SDS011;16776;50.958;10.994;2023-05-19T14:01:10;0.40;;;0.40;;
29906;SDS011;16776;50.958;10.994;2023-05-19T14:03:37;0.50;;;0.50;;
29906;SDS011;16776;50.958;10.994;2023-05-19T14:06:04;1.77;;;0.88;;
29906;SDS011;16776;50.958;10.994;2023-05-19T14:08:33;0.50;;;0.50;;
29906;SDS011;16776;50.958;10.994;2023-05-19T14:11:03;3.08;;;0.70;;
29906;SDS011;16776;50.958;10.994;2023-05-19T14:13:30;0.60;;;0.60;;
29906;SDS011;16776;50.958;10.994;2023-05-19T14:15:56;0.80;;;0.70;;
29906;SDS011;16776;50.958;10.994;2023-05-19T14:18:23;1.00;;;0.80;;
29906;SDS011;16776;50.958;10.994;2023-05-19T14:20:50;0.73;;;0.70;;
29906;SDS011;16776;50.958;10.994;2023-05-19T14:23:17;1.00;;;0.90;;
29906;SDS011;16776;50.958;10.994;2023-05-19T14:25:45;0.68;;;0.65;;
29906;SDS011;16776;50.958;10.994;2023-05-19T14:28:14;1.23;;;1.00;;
29906;SDS011;16776;50.958;10.994;2023-05-19T14:30:40;0.77;;;0.77;;
29906;SDS011;16776;50.958;10.994;2023-05-19T14:33:07;1.20;;;0.82;;
29906;SDS011;16776;50.958;10.994;2023-05-19T14:35:34;0.85;;;0.60;;
29906;SDS011;16776;50.958;10.994;2023-05-19T14:38:00;0.63;;;0.63;;
29906;SDS011;16776;50.958;10.994;2023-05-19T14:40:27;1.23;;;0.90;;
29906;SDS011;16776;50.958;10.994;2023-05-19T14:42:54;1.40;;;0.70;;
29906;SDS011;16776;50.958;10.994;2023-05-19T14:45:22;0.60;;;0.60;;
29906;SDS011;16776;50.958;10.994;2023-05-19T14:47:49;0.90;;;0.70;;